Latest Weather Observations for North Head

IDN60801

Issued at 3:42 pm EST Wednesday 20 June 2018 (issued every 10 minutes, with the page automatically refreshed every 10 minutes)

About weather observations | Map of weather stations | Latest weather observations for NSW | Other Formats
Station Details ID: 066197 Name: NORTH HEAD Lat: -33.82 Lon: 151.30 Height: 90.0 m
Data from the previous 72 hours. | See also: Recent months for locations in New South Wales
Date/Time
EST
Temp
°C
App
Temp
°C
Dew
Point
°C
Rel
Hum
%
Delta-T
°C
Wind Press
QNH
hPa
Press
MSL
hPa
Rain since
9am
mm
Dir  Spd
km/h
Gust
km/h
Spd
kts
Gust
kts
20/03:30pm - - - - - SSE 19 32 10 17 - - -
20/03:00pm - - - - - S 20 35 11 19 - - -
20/02:30pm - - - - - S 20 33 11 18 - - -
20/02:00pm - - - - - SSE 20 32 11 17 - - -
20/01:30pm - - - - - SSE 19 28 10 15 - - -
20/01:00pm - - - - - SSE 15 22 8 12 - - -
20/12:30pm - - - - - SSE 15 26 8 14 - - -
20/12:00pm - - - - - S 13 24 7 13 - - -
20/11:30am - - - - - SW 7 17 4 9 - - -
20/11:00am - - - - - WSW 9 17 5 9 - - -
20/10:30am - - - - - W 9 15 5 8 - - -
20/10:00am - - - - - WSW 9 20 5 11 - - -
20/09:30am - - - - - SSW 11 30 6 16 - - -
20/09:00am - - - - - WSW 9 15 5 8 - - -
20/08:30am - - - - - S 20 32 11 17 - - -
20/08:00am - - - - - SSE 26 37 14 20 - - -
20/07:30am - - - - - SE 30 44 16 24 - - -
20/07:00am - - - - - SSE 20 39 11 21 - - -
20/06:30am - - - - - S 26 43 14 23 - - -
20/06:00am - - - - - SSW 19 30 10 16 - - -
20/05:30am - - - - - SW 17 28 9 15 - - -
20/05:00am - - - - - SW 20 32 11 17 - - -
20/04:30am - - - - - SSW 15 33 8 18 - - -
20/04:00am - - - - - SW 17 26 9 14 - - -
20/03:30am - - - - - SSW 17 28 9 15 - - -
20/03:00am - - - - - WSW 20 35 11 19 - - -
20/02:30am - - - - - S 26 39 14 21 - - -
20/02:00am - - - - - SSE 22 32 12 17 - - -
20/01:49am - - - - - SE 43 63 23 34 - - -
20/01:41am - - - - - SE 39 63 21 34 - - -
20/01:31am - - - - - SSE 28 46 15 25 - - -
20/01:30am - - - - - S 26 41 14 22 - - -
20/01:00am - - - - - SE 37 59 20 32 - - -
20/12:43am - - - - - SE 35 56 19 30 - - -
20/12:30am - - - - - SE 33 50 18 27 - - -
20/12:04am - - - - - SSE 26 57 14 31 - - -
20/12:00am - - - - - S 20 35 11 19 - - -
 
Date/Time
EST
Temp
°C
App
Temp
°C
Dew
Point
°C
Rel
Hum
%
Delta-T
°C
Wind Press
QNH
hPa
Press
MSL
hPa
Rain since
9am
mm
Dir  Spd
km/h
Gust
km/h
Spd
kts
Gust
kts
19/11:30pm - - - - - S 26 52 14 28 - - -
19/11:00pm - - - - - S 33 61 18 33 - - -
19/10:48pm - - - - - S 24 48 13 26 - - -
19/10:30pm - - - - - WSW 19 28 10 15 - - -
19/10:00pm - - - - - SW 19 28 10 15 - - -
19/09:30pm - - - - - SW 19 30 10 16 - - -
19/09:00pm - - - - - SW 13 24 7 13 - - -
19/08:30pm - - - - - SW 17 32 9 17 - - -
19/08:00pm - - - - - SW 19 33 10 18 - - -
19/07:30pm - - - - - SW 20 32 11 17 - - -
19/07:00pm - - - - - SSW 19 39 10 21 - - -
19/06:30pm - - - - - SSW 11 28 6 15 - - -
19/06:05pm - - - - - SSE 33 52 18 28 - - -
19/06:00pm - - - - - SSE 35 52 19 28 - - -
19/05:47pm - - - - - SSE 33 54 18 29 - - -
19/05:43pm - - - - - SSE 33 63 18 34 - - -
19/05:30pm - - - - - SE 43 69 23 37 - - -
19/05:11pm - - - - - SSE 33 57 18 31 - - -
19/05:08pm - - - - - S 30 57 16 31 - - -
19/05:06pm - - - - - S 28 57 15 31 - - -
19/05:00pm - - - - - SSW 22 37 12 20 - - -
19/04:31pm - - - - - SSW 30 48 16 26 - - -
19/04:30pm - - - - - SSW 28 46 15 25 - - -
19/04:00pm - - - - - SSW 30 50 16 27 - - -
19/03:54pm - - - - - SSW 28 50 15 27 - - -
19/03:30pm - - - - - SSW 17 28 9 15 - - -
19/03:14pm - - - - - SSW 28 48 15 26 - - -
19/03:00pm - - - - - SSW 28 46 15 25 - - -
19/02:30pm - - - - - WSW 24 37 13 20 - - -
19/02:00pm - - - - - WSW 20 32 11 17 - - -
19/01:30pm - - - - - WSW 24 39 13 21 - - -
19/01:00pm - - - - - SW 30 41 16 22 - - -
19/12:30pm - - - - - SW 19 32 10 17 - - -
19/12:06pm - - - - - SW 32 61 17 33 - - -
19/12:00pm - - - - - SW 30 46 16 25 - - -
19/11:56am - - - - - SW 28 48 15 26 - - -
19/11:30am - - - - - SW 20 33 11 18 - - -
19/11:00am - - - - - SW 26 48 14 26 - - -
19/10:37am - - - - - SW 28 48 15 26 - - -
19/10:30am - - - - - SW 30 46 16 25 - - -
19/10:11am - - - - - SW 28 46 15 25 - - -
19/10:00am - - - - - SW 28 41 15 22 - - -
19/09:30am - - - - - WSW 28 48 15 26 - - -
19/09:27am - - - - - SW 28 46 15 25 - - -
19/09:00am - - - - - SW 24 39 13 21 - - -
19/08:30am - - - - - SW 22 43 12 23 - - -
19/08:00am - - - - - SW 28 50 15 27 - - -
19/07:33am - - - - - SW 30 48 16 26 - - -
19/07:30am - - - - - SW 32 48 17 26 - - -
19/07:08am - - - - - SW 28 50 15 27 - - -
19/07:00am - - - - - WSW 26 41 14 22 - - -
19/06:30am - - - - - WSW 26 43 14 23 - - -
19/06:00am - - - - - W 30 48 16 26 - - -
19/05:30am - - - - - WSW 26 37 14 20 - - -
19/05:00am - - - - - WSW 26 41 14 22 - - -
19/04:33am - - - - - SW 32 50 17 27 - - -
19/04:30am - - - - - SW 33 50 18 27 - - -
19/04:00am - - - - - SW 35 54 19 29 - - -
19/03:30am - - - - - WSW 30 48 16 26 - - -
19/03:23am - - - - - WSW 30 48 16 26 - - -
19/03:00am - - - - - WSW 22 39 12 21 - - -
19/02:30am - - - - - WSW 22 33 12 18 - - -
19/02:00am - - - - - WSW 20 32 11 17 - - -
19/01:30am - - - - - WSW 22 33 12 18 - - -
19/01:00am - - - - - WSW 24 39 13 21 - - -
19/12:30am - - - - - WSW 24 41 13 22 - - -
19/12:00am - - - - - WSW 22 32 12 17 - - -
 
Date/Time
EST
Temp
°C
App
Temp
°C
Dew
Point
°C
Rel
Hum
%
Delta-T
°C
Wind Press
QNH
hPa
Press
MSL
hPa
Rain since
9am
mm
Dir  Spd
km/h
Gust
km/h
Spd
kts
Gust
kts
18/11:30pm - - - - - WSW 20 33 11 18 - - -
18/11:00pm - - - - - WSW 20 35 11 19 - - -
18/10:30pm - - - - - SW 24 41 13 22 - - -
18/10:10pm - - - - - SW 28 46 15 25 - - -
18/10:00pm - - - - - SW 26 43 14 23 - - -
18/09:30pm - - - - - SW 33 61 18 33 - - -
18/09:00pm - - - - - SW 32 54 17 29 - - -
18/08:31pm - - - - - SW 28 50 15 27 - - -
18/08:30pm - - - - - SW 26 50 14 27 - - -
18/08:00pm - - - - - SW 32 54 17 29 - - -
18/07:56pm - - - - - SW 28 54 15 29 - - -
18/07:30pm - - - - - SSW 26 43 14 23 - - -
18/07:00pm - - - - - SSW 35 59 19 32 - - -
18/06:30pm - - - - - SSW 28 48 15 26 - - -
18/06:00pm - - - - - SSW 32 59 17 32 - - -
18/05:30pm - - - - - S 35 57 19 31 - - -
18/05:01pm - - - - - SSE 41 59 22 32 - - -
18/05:00pm - - - - - SSE 41 57 22 31 - - -
18/04:36pm - - - - - S 35 78 19 42 - - -
18/04:32pm - - - - - SSW 24 57 13 31 - - -
18/04:30pm - - - - - SSW 22 37 12 20 - - -
18/04:00pm - - - - - S 32 57 17 31 - - -
18/03:30pm - - - - - SW 28 48 15 26 - - -
18/03:01pm - - - - - SW 28 46 15 25 - - -
18/03:00pm - - - - - SW 26 46 14 25 - - -
18/02:30pm - - - - - SSW 24 37 13 20 - - -
18/02:00pm - - - - - SSW 32 52 17 28 - - -
18/01:30pm - - - - - SW 28 48 15 26 - - -
18/01:00pm - - - - - SW 32 54 17 29 - - -
18/12:30pm - - - - - SW 30 48 16 26 - - -
18/12:08pm - - - - - SW 28 46 15 25 - - -
18/12:00pm - - - - - SW 26 39 14 21 - - -
18/11:30am - - - - - SW 20 41 11 22 - - -
18/11:00am - - - - - WSW 19 32 10 17 - - -
18/10:30am - - - - - SW 24 41 13 22 - - -
18/10:00am - - - - - WSW 22 39 12 21 - - -
18/09:30am - - - - - WSW 26 39 14 21 - - -
18/09:00am - - - - - WSW 28 44 15 24 - - -
18/08:30am - - - - - WSW 30 44 16 24 - - -
18/08:00am - - - - - WSW 32 52 17 28 - - -
18/07:36am - - - - - WSW 33 54 18 29 - - -
18/07:30am - - - - - WSW 30 44 16 24 - - -
18/07:17am - - - - - WSW 28 48 15 26 - - -
18/07:00am - - - - - WSW 28 44 15 24 - - -
18/06:30am - - - - - WSW 28 44 15 24 - - -
18/06:13am - - - - - WSW 28 46 15 25 - - -
18/06:00am - - - - - WSW 26 39 14 21 - - -
18/05:35am - - - - - WSW 28 52 15 28 - - -
18/05:30am - - - - - WSW 26 41 14 22 - - -
18/05:00am - - - - - WSW 26 41 14 22 - - -
18/04:31am - - - - - W 28 54 15 29 - - -
18/04:30am - - - - - W 28 44 15 24 - - -
18/04:00am - - - - - WSW 26 39 14 21 - - -
18/03:30am - - - - - WSW 26 41 14 22 - - -
18/03:00am - - - - - WSW 24 39 13 21 - - -
18/02:30am - - - - - WSW 20 39 11 21 - - -
18/02:00am - - - - - WSW 20 35 11 19 - - -
18/01:30am - - - - - W 19 30 10 16 - - -
18/01:00am - - - - - W 19 30 10 16 - - -
18/12:30am - - - - - W 17 26 9 14 - - -
18/12:00am - - - - - WNW 19 28 10 15 - - -
 
Date/Time
EST
Temp
°C
App
Temp
°C
Dew
Point
°C
Rel
Hum
%
Delta-T
°C
Wind Press
QNH
hPa
Press
MSL
hPa
Rain since
9am
mm
Dir  Spd
km/h
Gust
km/h
Spd
kts
Gust
kts
17/11:30pm - - - - - WNW 20 30 11 16 - - -
17/11:00pm - - - - - WNW 22 33 12 18 - - -
17/10:30pm - - - - - WNW 24 39 13 21 - - -
17/10:00pm - - - - - WNW 28 39 15 21 - - -
17/09:30pm - - - - - WNW 26 39 14 21 - - -
17/09:00pm - - - - - WNW 26 39 14 21 - - -
17/08:30pm - - - - - WNW 26 39 14 21 - - -
17/08:00pm - - - - - WNW 24 37 13 20 - - -
17/07:30pm - - - - - WNW 24 37 13 20 - - -
17/07:00pm - - - - - WNW 19 32 10 17 - - -
17/06:30pm - - - - - WNW 13 20 7 11 - - -
17/06:00pm - - - - - WNW 17 28 9 15 - - -
17/05:30pm - - - - - WNW 19 32 10 17 - - -
17/05:00pm - - - - - WNW 22 37 12 20 - - -
17/04:30pm - - - - - WNW 19 30 10 16 - - -
17/04:00pm - - - - - WNW 22 33 12 18 - - -

Other Formats:

Comma delimited format used in spreadsheet applications
http://www.bom.gov.au/fwo/IDN60801/IDN60801.95768.axf

JavaScript Object Notation format (JSON) in row-major order
http://www.bom.gov.au/fwo/IDN60801/IDN60801.95768.json